Time;durP1;ratioP1;P1;durP2;ratioP2;P2;SDS_P1;SDS_P2;PMS_P1;PMS_P2;Temp;Humidity;BMP_temperature;BMP_pressure;BME280_temperature;BME280_humidity;BME280_pressure;Samples;Min_cycle;Max_cycle;Signal;HPM_P1;HPM_P2
2022/05/20 00:01:04;;;;;;;7.45;6.32;;;13.70;99.90;;;;;;5093628;28;20040;-83
2022/05/20 00:03:31;;;;;;;10.10;6.38;;;13.80;99.90;;;;;;5094662;28;20052;-82
2022/05/20 00:05:58;;;;;;;9.60;8.23;;;13.80;99.90;;;;;;5093577;28;20115;-82
2022/05/20 00:08:23;;;;;;;10.52;8.00;;;13.80;99.90;;;;;;5076252;28;20060;-81
2022/05/20 00:10:50;;;;;;;11.25;8.18;;;13.80;99.90;;;;;;5094573;28;20085;-81
2022/05/20 00:13:16;;;;;;;10.98;8.07;;;13.80;99.90;;;;;;5093170;28;20514;-82
2022/05/20 00:15:42;;;;;;;10.23;8.35;;;13.80;99.90;;;;;;5093480;28;20043;-82
2022/05/20 00:18:07;;;;;;;10.68;8.48;;;13.80;99.90;;;;;;5093433;28;20134;-82
2022/05/20 00:20:33;;;;;;;10.13;8.77;;;13.90;99.90;;;;;;5093192;28;20047;-83
2022/05/20 00:22:59;;;;;;;11.35;8.65;;;13.90;99.90;;;;;;5094240;28;20036;-81
2022/05/20 00:28:09;;;;;;;9.85;8.35;;;13.90;99.90;;;;;;5093162;28;20051;-82
2022/05/20 00:30:34;;;;;;;11.25;8.45;;;13.80;99.90;;;;;;5092566;28;20032;-82
2022/05/20 00:33:00;;;;;;;12.13;9.00;;;13.90;99.90;;;;;;5092826;28;20044;-82
2022/05/20 00:35:26;;;;;;;12.25;8.40;;;13.90;99.90;;;;;;5094174;28;20089;-82
2022/05/20 00:37:52;;;;;;;11.20;7.60;;;13.90;99.90;;;;;;5075989;28;20074;-82
2022/05/20 00:40:20;;;;;;;8.75;7.82;;;13.90;99.90;;;;;;5075942;28;20046;-82
2022/05/20 00:42:45;;;;;;;8.77;7.68;;;13.80;99.90;;;;;;5076191;28;20070;-82
2022/05/20 00:45:11;;;;;;;10.90;7.85;;;13.90;99.90;;;;;;5092988;28;20032;-83
2022/05/20 00:47:37;;;;;;;8.90;7.82;;;13.80;99.90;;;;;;5092859;28;20123;-82
2022/05/20 00:50:06;;;;;;;13.57;8.65;;;13.80;99.90;;;;;;5093421;28;20127;-82
2022/05/20 00:52:33;;;;;;;11.55;8.57;;;13.80;99.90;;;;;;5075833;28;20127;-82
2022/05/20 00:55:00;;;;;;;12.82;8.07;;;13.90;99.90;;;;;;5076281;28;20399;-82
2022/05/20 00:57:35;;;;;;;8.88;7.88;;;13.80;99.90;;;;;;5059662;28;20364;-82
2022/05/20 01:00:24;;;;;;;10.85;8.07;;;13.80;99.90;;;;;;5085848;28;20055;-85
2022/05/20 01:02:52;;;;;;;8.93;7.95;;;13.80;99.90;;;;;;5116520;28;20055;-84
2022/05/20 01:05:25;;;;;;;11.18;7.88;;;13.80;99.90;;;;;;5100675;28;20063;-87
2022/05/20 01:07:50;;;;;;;12.13;8.13;;;13.80;99.90;;;;;;5117598;28;20036;-85
2022/05/20 01:10:16;;;;;;;9.38;8.48;;;13.80;99.90;;;;;;5117741;28;20103;-82
2022/05/20 01:12:41;;;;;;;10.90;8.98;;;13.80;99.90;;;;;;5118097;28;20044;-87
2022/05/20 01:15:08;;;;;;;12.18;8.80;;;13.80;99.90;;;;;;5114022;28;20032;-82
2022/05/20 01:17:33;;;;;;;10.65;8.50;;;13.80;99.90;;;;;;5094145;28;20463;-82
2022/05/20 01:19:59;;;;;;;12.95;9.73;;;13.80;99.90;;;;;;5058541;28;20055;-82
2022/05/20 01:22:48;;;;;;;10.68;9.57;;;13.80;99.90;;;;;;5092953;28;20048;-82
2022/05/20 01:25:14;;;;;;;11.48;10.27;;;13.80;99.90;;;;;;5087424;28;20047;-82
2022/05/20 01:27:42;;;;;;;12.77;10.27;;;13.70;99.90;;;;;;5075328;28;20039;-83
2022/05/20 01:30:10;;;;;;;11.60;10.40;;;13.80;99.90;;;;;;5092907;28;20051;-82
2022/05/20 01:32:36;;;;;;;14.05;11.07;;;13.80;99.90;;;;;;5075488;28;20382;-83
2022/05/20 01:35:03;;;;;;;13.70;11.52;;;13.80;99.90;;;;;;5092026;28;20127;-84
2022/05/20 01:37:29;;;;;;;13.55;10.80;;;13.80;99.90;;;;;;5075264;28;20044;-82
2022/05/20 01:39:54;;;;;;;12.80;10.77;;;13.70;99.90;;;;;;5093294;28;20040;-82
2022/05/20 01:42:26;;;;;;;15.55;11.00;;;13.70;99.90;;;;;;5091963;28;20463;-82
2022/05/20 01:45:21;;;;;;;12.60;9.77;;;13.80;99.90;;;;;;5074581;28;20466;-82
2022/05/20 01:47:55;;;;;;;17.42;10.32;;;13.80;99.90;;;;;;5073272;28;20048;-82
2022/05/20 01:50:23;;;;;;;15.52;10.50;;;13.70;99.90;;;;;;5092075;28;20043;-81
2022/05/20 01:53:03;;;;;;;12.73;9.75;;;13.70;99.90;;;;;;5092759;28;20047;-84
2022/05/20 01:56:06;;;;;;;11.80;10.43;;;13.70;99.90;;;;;;5093244;28;20035;-82
2022/05/20 01:58:50;;;;;;;15.35;10.32;;;13.70;99.90;;;;;;5086307;28;20135;-83
2022/05/20 02:01:19;;;;;;;15.13;10.55;;;13.70;99.90;;;;;;5091609;28;20388;-82
2022/05/20 02:03:49;;;;;;;13.63;10.80;;;13.60;99.90;;;;;;5091307;28;20093;-82
2022/05/20 02:06:21;;;;;;;17.88;11.57;;;13.50;99.90;;;;;;5074902;28;20044;-83
2022/05/20 02:08:52;;;;;;;14.23;10.93;;;13.50;99.90;;;;;;5075048;28;20055;-82
2022/05/20 02:11:25;;;;;;;11.95;10.68;;;13.50;99.90;;;;;;5075297;28;20044;-82
2022/05/20 02:14:18;;;;;;;13.02;10.63;;;13.40;99.90;;;;;;5090833;28;20055;-82
2022/05/20 02:16:47;;;;;;;11.85;10.65;;;13.40;99.90;;;;;;5076441;28;20093;-82
2022/05/20 02:19:21;;;;;;;11.98;10.77;;;13.30;99.90;;;;;;5075004;28;20044;-82
2022/05/20 02:21:48;;;;;;;12.30;11.00;;;13.20;99.90;;;;;;5093245;28;20439;-89
2022/05/20 02:24:16;;;;;;;14.55;10.95;;;13.20;99.90;;;;;;5078935;28;20040;-82
2022/05/20 02:26:45;;;;;;;12.80;10.30;;;13.10;99.90;;;;;;5079011;28;20080;-81
2022/05/20 02:29:16;;;;;;;13.52;10.90;;;13.10;99.90;;;;;;5095064;28;20044;-83
2022/05/20 02:32:04;;;;;;;11.95;10.65;;;13.00;99.90;;;;;;5095417;28;20047;-82
2022/05/20 02:34:29;;;;;;;12.20;10.93;;;13.00;99.90;;;;;;5079561;28;20036;-82
2022/05/20 02:36:55;;;;;;;14.57;12.00;;;12.80;99.90;;;;;;5094718;28;20050;-83
2022/05/20 02:39:21;;;;;;;14.30;11.30;;;12.80;99.90;;;;;;5078800;28;20036;-83
2022/05/20 02:41:47;;;;;;;13.98;11.48;;;12.80;99.90;;;;;;5061782;28;20090;-82
2022/05/20 02:44:13;;;;;;;12.68;11.38;;;12.70;99.90;;;;;;5094916;28;20384;-82
2022/05/20 02:46:39;;;;;;;17.05;12.93;;;12.70;99.90;;;;;;5095262;28;20043;-82
2022/05/20 02:49:05;;;;;;;12.98;11.75;;;12.70;99.90;;;;;;5096205;28;20048;-82
2022/05/20 02:51:31;;;;;;;15.50;12.18;;;12.70;99.90;;;;;;5078331;28;20043;-84
2022/05/20 02:53:57;;;;;;;14.52;12.15;;;12.60;99.90;;;;;;5096248;28;20040;-82
2022/05/20 02:56:22;;;;;;;15.93;12.50;;;12.60;99.90;;;;;;5095401;28;20040;-82
2022/05/20 03:04:17;;;;;;;15.20;11.68;;;12.50;99.90;;;;;;5120187;28;20036;-84
2022/05/20 03:06:44;;;;;;;16.88;11.90;;;12.40;99.90;;;;;;5119718;28;20060;-83
2022/05/20 03:09:11;;;;;;;13.00;11.52;;;12.40;99.90;;;;;;5086233;28;20028;-84
2022/05/20 03:11:39;;;;;;;12.20;10.27;;;12.30;99.90;;;;;;5103491;28;20091;-83
2022/05/20 03:14:05;;;;;;;11.13;10.00;;;12.20;99.90;;;;;;5120293;28;20198;-88
2022/05/20 03:16:31;;;;;;;11.85;10.65;;;12.20;99.90;;;;;;5085198;28;20040;-84
2022/05/20 03:18:57;;;;;;;11.70;9.90;;;12.10;99.90;;;;;;5083712;28;20040;-82
2022/05/20 03:21:23;;;;;;;12.32;11.13;;;12.00;99.90;;;;;;5078113;28;20040;-82
2022/05/20 03:23:49;;;;;;;11.70;10.63;;;12.00;99.90;;;;;;5094441;28;20040;-81
2022/05/20 03:26:15;;;;;;;11.85;10.68;;;12.00;99.90;;;;;;5095229;28;20645;-82
2022/05/20 03:28:43;;;;;;;13.90;11.85;;;12.00;99.90;;;;;;5096204;28;20044;-82
2022/05/20 03:31:09;;;;;;;13.75;11.63;;;11.90;99.90;;;;;;5093736;28;20043;-82
2022/05/20 03:33:35;;;;;;;14.00;10.88;;;11.80;99.90;;;;;;5077349;28;20047;-82
2022/05/20 03:36:01;;;;;;;14.63;11.90;;;11.80;99.90;;;;;;5093861;28;20467;-83
2022/05/20 03:38:27;;;;;;;15.98;11.65;;;11.80;99.90;;;;;;5094505;28;20048;-82
2022/05/20 03:40:52;;;;;;;15.48;11.60;;;11.80;99.90;;;;;;5093809;28;20115;-82
2022/05/20 03:43:18;;;;;;;14.55;13.15;;;11.80;99.90;;;;;;5076694;28;20048;-81
2022/05/20 03:45:44;;;;;;;13.82;12.27;;;11.80;99.90;;;;;;5093818;28;20044;-82
2022/05/20 03:48:10;;;;;;;13.82;12.15;;;11.80;99.90;;;;;;5077308;28;20051;-82
2022/05/20 03:50:36;;;;;;;15.32;11.68;;;11.80;99.90;;;;;;5077281;28;20514;-82
2022/05/20 03:53:02;;;;;;;13.93;12.45;;;11.80;99.90;;;;;;5060293;28;20044;-86
2022/05/20 03:55:27;;;;;;;14.32;12.88;;;11.70;99.90;;;;;;5093878;28;20028;-82
2022/05/20 03:57:53;;;;;;;12.85;11.55;;;11.70;99.90;;;;;;5093594;28;20040;-82
2022/05/20 04:00:19;;;;;;;12.32;11.13;;;11.70;99.90;;;;;;5093404;28;20280;-81
2022/05/20 04:02:45;;;;;;;13.25;11.20;;;11.70;99.90;;;;;;5076816;28;20546;-81
2022/05/20 04:05:10;;;;;;;13.45;10.88;;;11.60;99.90;;;;;;5093069;28;20142;-82
2022/05/20 04:07:38;;;;;;;11.90;10.70;;;11.60;99.90;;;;;;5059731;28;20051;-82
2022/05/20 04:10:06;;;;;;;13.05;11.65;;;11.60;99.90;;;;;;5093347;28;20044;-81
2022/05/20 04:12:42;;;;;;;12.80;11.50;;;11.60;99.90;;;;;;5094567;28;20072;-82
2022/05/20 04:15:09;;;;;;;12.02;10.82;;;11.60;99.90;;;;;;5078131;28;20040;-83
2022/05/20 04:17:35;;;;;;;13.40;11.50;;;11.60;99.90;;;;;;5093833;28;20475;-81
2022/05/20 04:20:01;;;;;;;12.43;11.02;;;11.70;99.90;;;;;;5093711;28;20070;-82
2022/05/20 04:22:28;;;;;;;12.75;11.55;;;11.70;99.90;;;;;;5059570;28;20048;-81
2022/05/20 04:24:54;;;;;;;12.05;10.85;;;11.80;99.90;;;;;;5076414;28;20047;-80
2022/05/20 04:27:20;;;;;;;11.80;10.70;;;11.80;99.90;;;;;;5076163;28;20040;-81
2022/05/20 04:29:45;;;;;;;11.30;9.98;;;11.80;99.90;;;;;;5093725;28;20101;-80
2022/05/20 04:32:11;;;;;;;10.68;9.68;;;11.80;99.90;;;;;;5092399;28;20036;-81
2022/05/20 04:34:37;;;;;;;12.02;10.20;;;11.80;99.90;;;;;;5093579;28;20050;-81
2022/05/20 04:37:03;;;;;;;10.60;9.60;;;11.80;99.90;;;;;;5075838;28;20036;-79
2022/05/20 04:39:28;;;;;;;11.98;10.77;;;11.70;99.90;;;;;;5093195;28;20044;-79
2022/05/20 04:47:25;;;;;;;11.82;10.65;;;11.70;99.90;;;;;;5093710;28;20094;-80
2022/05/20 04:49:50;;;;;;;13.10;10.32;;;11.70;99.90;;;;;;5075540;28;20097;-79
2022/05/20 04:52:16;;;;;;;11.82;10.73;;;11.70;99.90;;;;;;5074540;28;20383;-81
2022/05/20 04:54:51;;;;;;;12.75;11.55;;;11.70;99.90;;;;;;5091716;28;20043;-80
2022/05/20 04:57:34;;;;;;;12.02;10.73;;;11.80;99.90;;;;;;5091739;28;20591;-83
2022/05/20 05:00:09;;;;;;;12.32;11.13;;;11.80;99.90;;;;;;5094106;28;20118;-81
2022/05/20 05:02:35;;;;;;;12.70;11.43;;;11.70;99.90;;;;;;5093461;28;20104;-78
2022/05/20 05:05:01;;;;;;;12.10;10.90;;;11.80;99.90;;;;;;5058503;28;20044;-79
2022/05/20 05:07:27;;;;;;;10.82;9.75;;;11.80;99.90;;;;;;5074417;28;20105;-80
2022/05/20 05:09:53;;;;;;;12.15;10.98;;;11.90;99.90;;;;;;5075285;28;20051;-84
2022/05/20 05:12:18;;;;;;;13.35;11.88;;;11.90;99.90;;;;;;5058296;28;20047;-79
2022/05/20 05:14:49;;;;;;;12.43;10.82;;;11.90;99.90;;;;;;5091425;28;20044;-81
2022/05/20 05:18:09;;;;;;;14.32;11.95;;;11.90;99.90;;;;;;5091177;28;20169;-81
2022/05/20 05:20:05;;;;;;;13.63;12.15;;;11.90;99.90;;;;;;5091737;28;20048;-80
2022/05/20 05:22:30;;;;;;;15.77;12.23;;;11.90;99.90;;;;;;5091550;28;20353;-81
2022/05/20 05:24:56;;;;;;;15.68;12.90;;;12.00;99.90;;;;;;5091649;28;20050;-81
2022/05/20 05:27:21;;;;;;;15.63;12.70;;;12.00;99.90;;;;;;5091386;28;20115;-80
2022/05/20 05:29:47;;;;;;;16.88;12.93;;;12.10;99.90;;;;;;5092763;28;20074;-80
2022/05/20 05:32:13;;;;;;;17.75;12.93;;;12.10;99.90;;;;;;5091408;28;20039;-87
2022/05/20 05:34:38;;;;;;;17.90;12.85;;;12.10;99.90;;;;;;5092930;28;20036;-81
2022/05/20 05:37:04;;;;;;;13.07;11.73;;;12.20;99.90;;;;;;5092976;28;20039;-80
2022/05/20 05:39:30;;;;;;;16.70;13.13;;;12.20;99.90;;;;;;5092630;28;20387;-80
2022/05/20 05:41:58;;;;;;;19.02;13.27;;;12.20;99.90;;;;;;5091469;28;20130;-80
2022/05/20 05:44:23;;;;;;;16.88;14.32;;;12.30;99.90;;;;;;5092131;28;20105;-81
2022/05/20 05:46:49;;;;;;;17.20;12.98;;;12.30;99.90;;;;;;5092245;28;20036;-81
2022/05/20 05:49:15;;;;;;;16.98;13.07;;;12.40;99.90;;;;;;5091200;28;20040;-81
2022/05/20 05:51:40;;;;;;;14.10;12.55;;;12.40;99.90;;;;;;5074641;28;20117;-81
2022/05/20 05:54:06;;;;;;;19.88;13.45;;;12.50;99.90;;;;;;5091548;28;20040;-81
2022/05/20 05:56:32;;;;;;;14.57;12.65;;;12.50;99.90;;;;;;5092331;28;20055;-83
2022/05/20 05:58:57;;;;;;;17.88;12.90;;;12.50;99.90;;;;;;5095627;28;20040;-81
2022/05/20 06:01:23;;;;;;;16.85;13.25;;;12.60;99.90;;;;;;5094905;28;20044;-81
2022/05/20 06:03:49;;;;;;;18.35;12.23;;;12.60;99.90;;;;;;5096666;28;20483;-81
2022/05/20 06:06:14;;;;;;;19.80;12.93;;;12.80;99.90;;;;;;5095289;28;20059;-81
2022/05/20 06:08:40;;;;;;;15.15;11.80;;;12.90;99.90;;;;;;5095403;28;20134;-81
2022/05/20 06:11:06;;;;;;;16.55;11.13;;;13.10;99.90;;;;;;5078995;28;20036;-81
2022/05/20 06:13:35;;;;;;;16.80;11.52;;;13.20;99.90;;;;;;5096243;28;20058;-81
2022/05/20 06:16:01;;;;;;;14.40;10.98;;;13.30;99.90;;;;;;5095548;28;20052;-81
2022/05/20 06:18:26;;;;;;;14.25;9.65;;;13.50;99.90;;;;;;5096354;28;20050;-81
2022/05/20 06:20:52;;;;;;;14.27;9.77;;;13.70;99.90;;;;;;5095600;28;20040;-80
2022/05/20 06:23:18;;;;;;;12.25;9.30;;;13.80;99.90;;;;;;5062152;28;20052;-81
2022/05/20 06:25:43;;;;;;;15.00;9.30;;;14.00;99.90;;;;;;5078147;28;20040;-81
2022/05/20 06:28:11;;;;;;;15.77;9.05;;;14.00;99.90;;;;;;5095010;28;20051;-82
2022/05/20 06:30:38;;;;;;;11.80;8.20;;;14.20;99.90;;;;;;5077943;28;20127;-81
2022/05/20 06:33:04;;;;;;;12.07;8.60;;;14.30;99.90;;;;;;5078640;28;20123;-81
2022/05/20 06:40:59;;;;;;;10.88;7.82;;;14.80;99.90;;;;;;5094821;28;20051;-81
2022/05/20 06:43:25;;;;;;;9.80;7.80;;;14.90;99.90;;;;;;5095560;28;20040;-82
2022/05/20 06:45:52;;;;;;;14.18;7.47;;;15.00;99.90;;;;;;5094801;28;20040;-81
2022/05/20 06:48:18;;;;;;;11.57;7.03;;;15.10;99.90;;;;;;5094908;28;20076;-81
2022/05/20 06:50:44;;;;;;;10.25;6.35;;;15.20;99.90;;;;;;5095359;28;20079;-80
2022/05/20 06:53:10;;;;;;;7.80;6.30;;;15.30;99.90;;;;;;5095449;28;20067;-81
2022/05/20 06:55:35;;;;;;;8.60;5.78;;;15.30;99.90;;;;;;5077298;28;20055;-81
2022/05/20 06:58:01;;;;;;;11.73;6.07;;;15.30;99.90;;;;;;5077981;28;20036;-81
2022/05/20 07:00:27;;;;;;;8.75;5.15;;;15.40;99.90;;;;;;5094191;28;20056;-83
2022/05/20 07:02:53;;;;;;;8.32;5.00;;;15.40;99.90;;;;;;5094227;28;20437;-79
2022/05/20 07:05:18;;;;;;;7.35;4.97;;;15.40;99.90;;;;;;5095141;28;20040;-80
2022/05/20 07:07:44;;;;;;;9.90;5.88;;;15.30;99.90;;;;;;5093413;28;20052;-80
2022/05/20 07:10:11;;;;;;;9.70;6.18;;;15.30;99.90;;;;;;5094601;28;20048;-81
2022/05/20 07:12:37;;;;;;;6.25;4.93;;;15.30;99.90;;;;;;5094095;28;20040;-81
2022/05/20 07:15:03;;;;;;;7.43;5.05;;;15.20;99.90;;;;;;5077719;28;20142;-80
2022/05/20 07:17:29;;;;;;;12.18;5.40;;;15.20;99.90;;;;;;5095132;28;20067;-81
2022/05/20 07:19:54;;;;;;;8.82;5.18;;;15.30;99.90;;;;;;5095512;28;20043;-82
2022/05/20 07:22:20;;;;;;;10.80;6.38;;;15.30;99.90;;;;;;5094531;28;20036;-82
2022/05/20 07:24:46;;;;;;;11.70;6.57;;;15.40;99.90;;;;;;5076835;28;20071;-82
2022/05/20 07:27:12;;;;;;;9.43;6.05;;;15.50;99.90;;;;;;5094286;28;20036;-83
2022/05/20 07:29:38;;;;;;;8.60;4.70;;;15.60;99.90;;;;;;5060595;28;20044;-83
2022/05/20 07:32:04;;;;;;;9.80;4.95;;;15.80;99.90;;;;;;5095863;28;20043;-83
2022/05/20 07:34:30;;;;;;;13.20;5.72;;;16.00;99.90;;;;;;5093852;28;20085;-90
2022/05/20 07:36:56;;;;;;;10.15;5.75;;;16.20;99.90;;;;;;5095751;28;20044;-82
2022/05/20 07:39:21;;;;;;;9.60;5.75;;;16.30;99.90;;;;;;5095355;28;20127;-84
2022/05/20 07:41:47;;;;;;;7.75;4.95;;;16.40;99.90;;;;;;5095257;28;20127;-83
2022/05/20 07:44:14;;;;;;;8.05;4.97;;;16.40;99.90;;;;;;5077656;28;20123;-83
2022/05/20 07:46:39;;;;;;;10.10;4.70;;;16.40;99.90;;;;;;5077109;28;20425;-84
2022/05/20 07:49:05;;;;;;;6.15;4.15;;;16.40;99.90;;;;;;5077574;28;20083;-83
2022/05/20 07:51:31;;;;;;;8.98;4.10;;;16.50;99.90;;;;;;5093710;28;20036;-83
2022/05/20 07:54:00;;;;;;;9.57;4.28;;;16.60;99.90;;;;;;5093526;28;20039;-83
2022/05/20 07:56:30;;;;;;;6.05;3.40;;;16.60;99.90;;;;;;5093673;28;20097;-83
2022/05/20 07:59:17;;;;;;;5.35;3.30;;;16.70;99.90;;;;;;5077372;28;20052;-92
2022/05/20 08:01:45;;;;;;;5.90;3.83;;;16.90;99.90;;;;;;5069838;28;20391;-82
2022/05/20 08:04:56;;;;;;;7.20;3.40;;;17.00;99.90;;;;;;5060179;28;20392;-82
2022/05/20 08:07:36;;;;;;;6.93;3.22;;;17.10;99.90;;;;;;5094684;28;20048;-82
2022/05/20 08:10:21;;;;;;;5.97;3.40;;;17.10;99.90;;;;;;5077006;28;20483;-85
2022/05/20 08:12:47;;;;;;;5.88;3.35;;;17.10;99.90;;;;;;5093142;28;20050;-82
2022/05/20 08:15:13;;;;;;;4.78;2.70;;;17.20;99.90;;;;;;5076303;28;20040;-82
2022/05/20 08:17:40;;;;;;;5.38;2.70;;;17.20;99.90;;;;;;5092989;28;20040;-81
2022/05/20 08:20:09;;;;;;;5.88;3.60;;;17.30;99.90;;;;;;5092752;28;20368;-82
2022/05/20 08:22:35;;;;;;;6.40;3.60;;;17.30;99.90;;;;;;5093466;28;20515;-82
2022/05/20 08:25:01;;;;;;;11.68;4.35;;;17.30;99.90;;;;;;5092881;28;20054;-83
2022/05/20 08:27:29;;;;;;;7.93;4.05;;;17.40;99.90;;;;;;5092724;28;20167;-82
2022/05/20 08:29:55;;;;;;;8.85;4.15;;;17.50;99.40;;;;;;5076044;28;20079;-82
2022/05/20 08:32:20;;;;;;;11.57;3.90;;;17.50;98.30;;;;;;5059694;28;20510;-82
2022/05/20 08:34:46;;;;;;;11.02;4.10;;;17.60;98.00;;;;;;5059478;28;20399;-82
2022/05/20 08:37:13;;;;;;;6.65;4.80;;;17.60;97.70;;;;;;5092992;28;20124;-82
2022/05/20 08:39:38;;;;;;;5.13;4.63;;;17.60;97.40;;;;;;5093252;28;20494;-84
2022/05/20 08:42:05;;;;;;;7.47;4.38;;;17.50;97.80;;;;;;5092724;28;20078;-83
2022/05/20 08:44:31;;;;;;;7.63;4.20;;;17.50;97.80;;;;;;5094056;28;20122;-83
2022/05/20 08:47:22;;;;;;;10.88;4.80;;;17.40;97.70;;;;;;5075533;28;20498;-82
2022/05/20 08:49:49;;;;;;;8.32;5.32;;;17.40;97.80;;;;;;5092622;28;20044;-83
2022/05/20 08:52:15;;;;;;;8.00;5.53;;;17.40;98.10;;;;;;5092577;28;20127;-83
2022/05/20 08:54:41;;;;;;;7.28;5.50;;;17.40;97.90;;;;;;5093075;28;20075;-82
2022/05/20 08:57:23;;;;;;;7.78;5.10;;;17.50;98.20;;;;;;5076251;28;20032;-84
2022/05/20 08:59:50;;;;;;;7.78;5.93;;;17.50;97.80;;;;;;5093029;28;20119;-82
2022/05/20 09:02:15;;;;;;;7.40;5.53;;;17.50;97.80;;;;;;5093662;28;20039;-82
2022/05/20 09:04:41;;;;;;;9.05;5.95;;;17.60;98.30;;;;;;5092994;28;20498;-82
2022/05/20 09:07:11;;;;;;;8.32;6.00;;;17.60;98.00;;;;;;5091575;28;20047;-83
2022/05/20 09:09:45;;;;;;;6.97;5.20;;;17.70;98.00;;;;;;5092883;28;20391;-82
2022/05/20 09:12:31;;;;;;;5.68;4.32;;;17.70;97.50;;;;;;5092434;28;20044;-82
2022/05/20 09:18:30;;;;;;;6.72;4.75;;;17.90;95.40;;;;;;5093723;28;20052;-82
2022/05/20 09:20:56;;;;;;;8.23;5.55;;;18.00;96.30;;;;;;5077407;28;20392;-82
2022/05/20 09:23:23;;;;;;;6.93;5.05;;;18.00;95.20;;;;;;5093213;28;20043;-82
2022/05/20 09:26:06;;;;;;;7.40;5.28;;;18.10;95.30;;;;;;5059417;28;20387;-82
2022/05/20 09:28:33;;;;;;;7.22;4.88;;;18.20;95.10;;;;;;5058617;28;20035;-84
2022/05/20 09:31:19;;;;;;;6.95;5.15;;;18.30;94.50;;;;;;5091794;28;20048;-81
2022/05/20 09:34:03;;;;;;;8.80;4.85;;;18.40;94.70;;;;;;5092200;28;20091;-83
2022/05/20 09:36:55;;;;;;;6.03;5.10;;;18.40;94.90;;;;;;5076516;28;20379;-82
2022/05/20 09:39:35;;;;;;;5.32;4.05;;;18.50;94.20;;;;;;5085937;28;20482;-83
2022/05/20 09:42:17;;;;;;;6.15;4.32;;;18.50;94.30;;;;;;5091714;28;20040;-83
2022/05/20 09:44:44;;;;;;;6.25;4.30;;;18.60;94.10;;;;;;5077069;28;20467;-83
2022/05/20 09:47:13;;;;;;;5.50;3.90;;;18.60;92.90;;;;;;5091532;28;20043;-83
2022/05/20 09:49:48;;;;;;;8.70;4.65;;;18.70;92.60;;;;;;5092834;28;20036;-86
2022/05/20 09:52:52;;;;;;;7.13;4.03;;;18.80;92.30;;;;;;5091301;28;20043;-83
2022/05/20 09:55:25;;;;;;;6.00;4.38;;;18.80;92.30;;;;;;5076621;28;20044;-82
2022/05/20 09:57:50;;;;;;;6.57;4.35;;;18.80;91.50;;;;;;5092490;28;20075;-87
2022/05/20 10:00:18;;;;;;;7.05;4.05;;;18.80;91.10;;;;;;5091497;28;20530;-82
2022/05/20 10:02:53;;;;;;;5.38;3.42;;;18.80;91.00;;;;;;5092688;28;20044;-82
2022/05/20 10:05:26;;;;;;;5.28;3.90;;;18.80;91.20;;;;;;5092252;28;20043;-82
2022/05/20 10:08:10;;;;;;;6.55;3.72;;;18.80;92.30;;;;;;5075880;28;20074;-84
2022/05/20 10:10:54;;;;;;;4.82;3.38;;;18.80;92.20;;;;;;5075109;28;20438;-83
2022/05/20 10:13:34;;;;;;;4.95;3.53;;;18.80;93.00;;;;;;5093144;28;20048;-83
2022/05/20 10:16:05;;;;;;;5.15;3.08;;;18.90;90.70;;;;;;5091393;28;20032;-83
2022/05/20 10:18:42;;;;;;;;;;;18.90;91.40;;;;;;5092626;28;20114;-82
2022/05/20 10:21:25;;;;;;;5.93;3.00;;;18.90;91.40;;;;;;5091800;28;19916;-84
2022/05/20 10:24:28;;;;;;;7.22;3.45;;;19.00;92.50;;;;;;5091989;28;20047;-83
2022/05/20 10:26:59;;;;;;;8.35;3.55;;;19.10;90.50;;;;;;5093034;28;20040;-83
2022/05/20 10:32:34;;;;;;;4.93;3.92;;;19.20;90.00;;;;;;5078819;28;20078;-83
2022/05/20 10:35:00;;;;;;;4.68;3.58;;;19.30;89.50;;;;;;5074875;28;20047;-85
2022/05/20 10:37:52;;;;;;;5.07;3.22;;;19.30;88.20;;;;;;5092753;28;20051;-83
2022/05/20 10:40:40;;;;;;;5.97;3.50;;;19.30;90.00;;;;;;5091199;28;20048;-84
2022/05/20 10:43:11;;;;;;;7.28;3.58;;;19.40;88.10;;;;;;5092387;28;20055;-84
2022/05/20 10:48:46;;;;;;;5.43;3.00;;;19.40;87.60;;;;;;5097527;28;20058;-84
2022/05/20 10:51:42;;;;;;;4.22;3.10;;;19.40;88.30;;;;;;5096863;28;20040;-86
2022/05/20 10:54:26;;;;;;;4.72;3.05;;;19.50;85.70;;;;;;5096199;28;20083;-84
2022/05/20 10:57:02;;;;;;;4.63;2.40;;;19.50;84.70;;;;;;5095445;28;20083;-83
2022/05/20 10:59:50;;;;;;;4.70;3.05;;;19.50;85.40;;;;;;5095152;28;20058;-84
2022/05/20 11:02:24;;;;;;;5.47;2.70;;;19.60;84.90;;;;;;5094873;28;20499;-83
2022/05/20 11:05:00;;;;;;;4.38;2.50;;;19.60;83.80;;;;;;5078274;28;20083;-84
2022/05/20 11:07:31;;;;;;;3.05;1.92;;;19.70;82.50;;;;;;5094411;28;20387;-84
2022/05/20 11:10:00;;;;;;;3.72;2.35;;;19.80;82.00;;;;;;5096034;28;20044;-84
2022/05/20 11:12:33;;;;;;;3.58;2.42;;;19.90;82.10;;;;;;5095877;28;20040;-84
2022/05/20 11:15:33;;;;;;;3.00;2.70;;;20.00;80.70;;;;;;5078320;28;20052;-84
2022/05/20 11:18:09;;;;;;;3.77;2.20;;;20.00;74.10;;;;;;5095293;28;20040;-84
2022/05/20 11:21:06;;;;;;;3.15;2.00;;;20.00;75.10;;;;;;5094533;28;20048;-84
2022/05/20 11:23:40;;;;;;;5.10;3.00;;;20.10;75.70;;;;;;5095786;28;20046;-87
2022/05/20 11:26:15;;;;;;;4.43;2.28;;;20.10;75.70;;;;;;5095211;28;20382;-83
2022/05/20 11:28:46;;;;;;;5.90;3.03;;;20.10;76.50;;;;;;5095063;28;20044;-84
2022/05/20 11:31:21;;;;;;;4.78;3.03;;;20.20;75.50;;;;;;5093979;28;20047;-84
2022/05/20 11:34:13;;;;;;;4.88;3.53;;;20.30;74.00;;;;;;5095383;28;20040;-84
2022/05/20 11:37:04;;;;;;;4.47;2.67;;;20.20;76.50;;;;;;5078453;28;20058;-84
2022/05/20 11:39:33;;;;;;;5.18;2.60;;;20.30;77.30;;;;;;5094266;28;20120;-84
2022/05/20 11:42:36;;;;;;;4.10;2.55;;;20.30;74.90;;;;;;5077544;28;20122;-84
2022/05/20 11:45:11;;;;;;;4.15;3.05;;;20.40;74.50;;;;;;5096086;28;20119;-85
2022/05/20 11:48:15;;;;;;;4.00;2.70;;;20.50;71.90;;;;;;5094043;28;20036;-84
2022/05/20 11:51:03;;;;;;;3.63;2.40;;;20.50;69.40;;;;;;5035874;28;20184;-84
2022/05/20 11:53:41;;;;;;;4.95;3.33;;;20.50;70.40;;;;;;5035837;28;20102;-84
2022/05/20 11:56:28;;;;;;;3.97;2.67;;;20.60;70.30;;;;;;5081407;28;20119;-91
2022/05/20 11:58:59;;;;;;;3.95;2.53;;;20.60;70.20;;;;;;5046370;28;20040;-84
2022/05/20 12:01:25;;;;;;;3.10;2.53;;;20.60;71.10;;;;;;5093457;28;20135;-84
2022/05/20 12:04:09;;;;;;;4.68;2.88;;;20.60;70.40;;;;;;5076813;28;20077;-84
2022/05/20 12:06:47;;;;;;;4.75;2.28;;;20.60;70.10;;;;;;5093594;28;20146;-84
2022/05/20 12:09:28;;;;;;;4.85;3.80;;;20.70;72.30;;;;;;5092956;28;20087;-85
2022/05/20 12:12:06;;;;;;;5.22;2.50;;;20.70;71.70;;;;;;5094446;28;20364;-84
2022/05/20 12:14:53;;;;;;;6.25;3.53;;;20.70;75.70;;;;;;5094558;28;20079;-85
2022/05/20 12:17:32;;;;;;;3.30;2.47;;;20.70;73.20;;;;;;5079238;28;20075;-85
2022/05/20 12:26:03;;;;;;;5.27;2.50;;;20.70;73.80;;;;;;5064493;28;20051;-84
2022/05/20 12:28:36;;;;;;;4.18;1.88;;;20.70;72.00;;;;;;5092755;28;20044;-84
2022/05/20 12:31:20;;;;;;;4.75;2.40;;;20.80;73.10;;;;;;5093689;28;20491;-85
2022/05/20 12:34:05;;;;;;;5.95;3.03;;;20.80;71.80;;;;;;5094441;28;20039;-84
2022/05/20 12:36:31;;;;;;;4.68;2.25;;;20.80;72.00;;;;;;5077028;28;20119;-84
2022/05/20 12:39:12;;;;;;;4.90;2.20;;;20.80;70.80;;;;;;5093035;28;20122;-84
2022/05/20 12:41:45;;;;;;;3.97;2.17;;;20.90;70.70;;;;;;5093814;28;20070;-84
2022/05/20 12:44:17;;;;;;;3.22;2.08;;;20.90;68.60;;;;;;5074377;28;20044;-85
2022/05/20 12:47:04;;;;;;;3.35;1.60;;;21.00;66.00;;;;;;5120277;27;20043;-86
2022/05/20 12:49:36;;;;;;;2.00;1.40;;;21.00;65.80;;;;;;5078405;28;20036;-85
2022/05/20 12:52:05;;;;;;;3.35;2.30;;;21.10;66.00;;;;;;5073415;28;20044;-86
2022/05/20 12:54:30;;;;;;;4.47;2.63;;;21.10;68.40;;;;;;5073479;28;20132;-85
2022/05/20 12:57:06;;;;;;;8.15;2.88;;;21.10;67.90;;;;;;5074087;28;20123;-86
2022/05/20 12:59:31;;;;;;;7.10;2.80;;;21.10;69.60;;;;;;5074351;28;20131;-87
2022/05/20 13:01:59;;;;;;;5.43;2.63;;;21.10;70.90;;;;;;5039250;28;20131;-85
2022/05/20 13:04:29;;;;;;;6.05;2.80;;;21.10;74.00;;;;;;5055522;28;20057;-86
2022/05/20 13:06:56;;;;;;;6.57;2.78;;;21.00;75.40;;;;;;5071870;28;20055;-84
2022/05/20 13:09:26;;;;;;;6.22;3.00;;;20.90;76.30;;;;;;5071989;28;20049;-85
2022/05/20 13:11:52;;;;;;;7.83;3.70;;;20.80;76.40;;;;;;5073670;28;20399;-85
2022/05/20 13:14:19;;;;;;;6.45;3.30;;;20.70;74.90;;;;;;5038692;28;20048;-88
2022/05/20 13:16:48;;;;;;;3.50;2.75;;;20.60;76.10;;;;;;5055577;28;20064;-85
2022/05/20 13:19:16;;;;;;;6.93;3.20;;;20.40;77.10;;;;;;5072896;28;20105;-86
2022/05/20 13:21:43;;;;;;;4.22;2.90;;;20.30;77.50;;;;;;5054984;28;20048;-85
2022/05/20 13:24:14;;;;;;;4.07;2.72;;;20.20;78.20;;;;;;5055613;28;20048;-85
2022/05/20 13:26:42;;;;;;;4.63;2.60;;;20.10;78.90;;;;;;5071255;28;20071;-85
2022/05/20 13:29:07;;;;;;;3.60;2.25;;;19.90;80.10;;;;;;5072946;28;20045;-86
2022/05/20 13:31:33;;;;;;;4.60;2.65;;;19.80;79.00;;;;;;5072533;28;20496;-85